Portada
METAR-TAF:

METAR-TAF

Aeroports :

Marathon, Florida, Estats Units d'Amèrica

latitud: 24-43-33N, longitud: 081-02-52W, altitud: 2 m

Observació

L'informe es va fer fa 20 minuts, a les 14:53 UTC
Vent 8 kt del Est/Sud-Est
Temperatura 27°C
Humitat 58%
Pressió 1020 hPa
Visibilitat: 16.1 km
Cel clar

METAR: KMTH 261453Z AUTO 12008KT 10SM CLR 27/18 A3012 RMK AO2 SLP200 T02720183 51013

Hora: 10:13 (15:13 UTC)

Pronòstic

L'informe es va fer fa 10 minuts, a les 15:03 UTC
Pronòstic vàlid del 26 a les 15 UTC al 27 a les 12 UTC
Vent 8 kt del Est/Sud-Est
Visibilitat: 10 km
Escasses núvols a una alçada de 4000 ft

TAF: KMTH 261503Z 2615/2712 11008KT P6SM FEW040

Observacions i pronòstics meteorològics de més de 4000 aeroports (METAR i TAF).

Les estacions disponibles són els punts grocs i vermells al mapa.

Posi el ratolí al punt desitjat per veure el nom de l'estació.

Feu clic per veure les observacions i els pronòstics meteorològics.

Per canviar el mapa: feu clic els botons verds amb una creu de color negre per apropar; al botó verd amb un guió per allunyar la imatge; o en les fletxes verdes per a mapes adjacents.


METAR-TAF: